sensor_id;sensor_type;location;lat;lon;timestamp;pressure;altitude;pressure_sealevel;temperature;humidity
26376;BME280;30544;42.196;24.336;2023-02-28T00:01:12;99642.34;;;10.97;74.57
26376;BME280;30544;42.196;24.336;2023-02-28T00:03:40;99650.81;;;11.13;73.35
26376;BME280;30544;42.196;24.336;2023-02-28T00:06:08;99652.13;;;11.11;73.45
26376;BME280;30544;42.196;24.336;2023-02-28T00:08:36;99647.03;;;10.84;74.60
26376;BME280;30544;42.196;24.336;2023-02-28T00:11:03;99635.66;;;10.74;74.50
26376;BME280;30544;42.196;24.336;2023-02-28T00:13:30;99642.06;;;10.75;75.20
26376;BME280;30544;42.196;24.336;2023-02-28T00:16:01;99640.84;;;10.59;75.07
26376;BME280;30544;42.196;24.336;2023-02-28T00:18:28;99648.47;;;10.75;75.58
26376;BME280;30544;42.196;24.336;2023-02-28T00:20:56;99651.72;;;10.84;74.65
26376;BME280;30544;42.196;24.336;2023-02-28T00:23:23;99651.13;;;10.82;74.46
26376;BME280;30544;42.196;24.336;2023-02-28T00:25:50;99651.88;;;11.01;74.06
26376;BME280;30544;42.196;24.336;2023-02-28T00:28:17;99653.44;;;10.97;74.10
26376;BME280;30544;42.196;24.336;2023-02-28T00:30:44;99659.47;;;10.82;74.93
26376;BME280;30544;42.196;24.336;2023-02-28T00:33:11;99664.53;;;10.85;74.97
26376;BME280;30544;42.196;24.336;2023-02-28T00:35:38;99670.97;;;10.55;77.34
26376;BME280;30544;42.196;24.336;2023-02-28T00:38:06;99654.06;;;10.45;77.99
26376;BME280;30544;42.196;24.336;2023-02-28T00:40:33;99656.00;;;10.57;77.59
26376;BME280;30544;42.196;24.336;2023-02-28T00:43:00;99656.06;;;10.68;77.17
26376;BME280;30544;42.196;24.336;2023-02-28T00:45:26;99657.44;;;10.47;78.10
26376;BME280;30544;42.196;24.336;2023-02-28T00:47:53;99655.16;;;10.44;78.77
26376;BME280;30544;42.196;24.336;2023-02-28T00:50:20;99660.94;;;10.43;78.13
26376;BME280;30544;42.196;24.336;2023-02-28T00:52:47;99669.50;;;10.41;79.34
26376;BME280;30544;42.196;24.336;2023-02-28T00:55:16;99658.59;;;10.28;79.73
26376;BME280;30544;42.196;24.336;2023-02-28T00:57:43;99657.06;;;10.14;80.47
26376;BME280;30544;42.196;24.336;2023-02-28T01:00:11;99646.25;;;10.24;80.57
26376;BME280;30544;42.196;24.336;2023-02-28T01:02:38;99648.03;;;10.18;80.43
26376;BME280;30544;42.196;24.336;2023-02-28T01:05:06;99650.88;;;10.30;80.04
26376;BME280;30544;42.196;24.336;2023-02-28T01:07:33;99654.53;;;10.12;80.45
26376;BME280;30544;42.196;24.336;2023-02-28T01:10:00;99653.19;;;10.15;80.27
26376;BME280;30544;42.196;24.336;2023-02-28T01:12:28;99650.44;;;10.15;80.42
26376;BME280;30544;42.196;24.336;2023-02-28T01:14:55;99661.00;;;10.24;80.01
26376;BME280;30544;42.196;24.336;2023-02-28T01:17:22;99634.72;;;10.27;79.60
26376;BME280;30544;42.196;24.336;2023-02-28T01:19:48;99631.00;;;10.33;79.39
26376;BME280;30544;42.196;24.336;2023-02-28T01:22:15;99635.34;;;10.29;79.87
26376;BME280;30544;42.196;24.336;2023-02-28T01:24:42;99647.50;;;10.28;80.01
26376;BME280;30544;42.196;24.336;2023-02-28T01:27:09;99640.50;;;10.26;79.60
26376;BME280;30544;42.196;24.336;2023-02-28T01:29:37;99645.00;;;10.20;80.07
26376;BME280;30544;42.196;24.336;2023-02-28T01:32:04;99652.22;;;10.39;79.21
26376;BME280;30544;42.196;24.336;2023-02-28T01:34:30;99655.88;;;10.51;79.51
26376;BME280;30544;42.196;24.336;2023-02-28T01:36:58;99644.19;;;10.49;78.69
26376;BME280;30544;42.196;24.336;2023-02-28T01:39:25;99658.78;;;10.45;78.85
26376;BME280;30544;42.196;24.336;2023-02-28T01:41:51;99658.91;;;10.50;78.80
26376;BME280;30544;42.196;24.336;2023-02-28T01:47:26;99669.34;;;10.78;78.30
26376;BME280;30544;42.196;24.336;2023-02-28T01:49:53;99672.69;;;10.68;77.56
26376;BME280;30544;42.196;24.336;2023-02-28T01:52:21;99668.78;;;10.58;78.69
26376;BME280;30544;42.196;24.336;2023-02-28T01:54:52;99668.19;;;10.55;78.47
26376;BME280;30544;42.196;24.336;2023-02-28T01:57:24;99664.22;;;10.51;79.10
26376;BME280;30544;42.196;24.336;2023-02-28T01:59:54;99661.19;;;10.41;80.11
26376;BME280;30544;42.196;24.336;2023-02-28T02:02:27;99660.59;;;10.51;79.05
26376;BME280;30544;42.196;24.336;2023-02-28T02:04:59;99669.75;;;10.21;80.36
26376;BME280;30544;42.196;24.336;2023-02-28T02:07:29;99669.22;;;10.31;80.63
26376;BME280;30544;42.196;24.336;2023-02-28T02:10:01;99675.13;;;10.35;79.52
26376;BME280;30544;42.196;24.336;2023-02-28T02:12:37;99682.28;;;10.42;80.16
26376;BME280;30544;42.196;24.336;2023-02-28T02:15:12;99684.56;;;10.45;79.72
26376;BME280;30544;42.196;24.336;2023-02-28T02:17:45;99681.88;;;10.39;79.38
26376;BME280;30544;42.196;24.336;2023-02-28T02:20:32;99678.97;;;10.34;80.04
26376;BME280;30544;42.196;24.336;2023-02-28T02:23:18;99677.91;;;10.35;79.99
26376;BME280;30544;42.196;24.336;2023-02-28T02:25:53;99687.25;;;10.22;80.98
26376;BME280;30544;42.196;24.336;2023-02-28T02:28:54;99697.97;;;10.48;80.20
26376;BME280;30544;42.196;24.336;2023-02-28T02:31:42;99702.47;;;10.31;79.92
26376;BME280;30544;42.196;24.336;2023-02-28T02:34:41;99708.03;;;10.31;80.29
26376;BME280;30544;42.196;24.336;2023-02-28T02:37:17;99703.44;;;10.25;80.78
26376;BME280;30544;42.196;24.336;2023-02-28T02:39:52;99703.03;;;10.21;80.84
26376;BME280;30544;42.196;24.336;2023-02-28T02:42:25;99706.22;;;10.37;79.25
26376;BME280;30544;42.196;24.336;2023-02-28T02:44:59;99699.72;;;10.31;79.89
26376;BME280;30544;42.196;24.336;2023-02-28T02:47:29;99705.56;;;10.23;80.17
26376;BME280;30544;42.196;24.336;2023-02-28T02:50:01;99711.94;;;10.23;79.59
26376;BME280;30544;42.196;24.336;2023-02-28T02:52:34;99720.81;;;10.14;79.89
26376;BME280;30544;42.196;24.336;2023-02-28T02:55:02;99726.72;;;10.17;80.48
26376;BME280;30544;42.196;24.336;2023-02-28T02:57:34;99732.03;;;10.19;80.35
26376;BME280;30544;42.196;24.336;2023-02-28T03:00:04;99736.38;;;9.78;81.53
26376;BME280;30544;42.196;24.336;2023-02-28T03:02:36;99739.19;;;9.72;82.17
26376;BME280;30544;42.196;24.336;2023-02-28T03:05:09;99744.50;;;9.73;82.63
26376;BME280;30544;42.196;24.336;2023-02-28T03:07:41;99747.50;;;9.53;83.36
26376;BME280;30544;42.196;24.336;2023-02-28T03:10:27;99750.84;;;9.80;83.44
26376;BME280;30544;42.196;24.336;2023-02-28T03:13:05;99763.25;;;9.53;85.64
26376;BME280;30544;42.196;24.336;2023-02-28T03:15:41;99757.38;;;9.24;86.31
26376;BME280;30544;42.196;24.336;2023-02-28T03:18:18;99760.28;;;9.29;86.87
26376;BME280;30544;42.196;24.336;2023-02-28T03:20:55;99767.00;;;8.90;87.81
26376;BME280;30544;42.196;24.336;2023-02-28T03:23:31;99781.22;;;8.62;88.94
26376;BME280;30544;42.196;24.336;2023-02-28T03:26:04;99783.16;;;8.55;88.34
26376;BME280;30544;42.196;24.336;2023-02-28T03:28:40;99782.97;;;8.57;88.06
26376;BME280;30544;42.196;24.336;2023-02-28T03:31:16;99785.50;;;8.07;87.00
26376;BME280;30544;42.196;24.336;2023-02-28T03:33:47;99788.28;;;7.94;87.84
26376;BME280;30544;42.196;24.336;2023-02-28T03:36:25;99789.56;;;7.84;88.64
26376;BME280;30544;42.196;24.336;2023-02-28T03:38:58;99790.44;;;7.92;88.47
26376;BME280;30544;42.196;24.336;2023-02-28T03:41:29;99797.16;;;8.02;87.89
26376;BME280;30544;42.196;24.336;2023-02-28T03:44:00;99799.44;;;8.19;87.90
26376;BME280;30544;42.196;24.336;2023-02-28T03:46:32;99792.06;;;8.64;86.46
26376;BME280;30544;42.196;24.336;2023-02-28T03:49:04;99801.56;;;8.74;85.05
26376;BME280;30544;42.196;24.336;2023-02-28T03:51:38;99818.75;;;8.45;86.93
26376;BME280;30544;42.196;24.336;2023-02-28T03:54:09;99819.66;;;8.70;86.83
26376;BME280;30544;42.196;24.336;2023-02-28T03:56:40;99819.75;;;8.89;85.77
26376;BME280;30544;42.196;24.336;2023-02-28T03:59:13;99824.03;;;8.91;84.98
26376;BME280;30544;42.196;24.336;2023-02-28T04:01:44;99831.13;;;9.12;84.99
26376;BME280;30544;42.196;24.336;2023-02-28T04:04:11;99836.03;;;9.35;83.71
26376;BME280;30544;42.196;24.336;2023-02-28T04:06:41;99834.75;;;9.38;83.69
26376;BME280;30544;42.196;24.336;2023-02-28T04:09:09;99835.75;;;9.68;83.07
26376;BME280;30544;42.196;24.336;2023-02-28T04:11:38;99836.38;;;9.70;84.29
26376;BME280;30544;42.196;24.336;2023-02-28T04:14:06;99834.41;;;9.77;84.03
26376;BME280;30544;42.196;24.336;2023-02-28T04:16:35;99828.78;;;9.84;83.42
26376;BME280;30544;42.196;24.336;2023-02-28T04:19:03;99830.63;;;9.90;84.18
26376;BME280;30544;42.196;24.336;2023-02-28T04:21:31;99839.75;;;9.97;83.63
26376;BME280;30544;42.196;24.336;2023-02-28T04:24:00;99847.09;;;9.85;85.30
26376;BME280;30544;42.196;24.336;2023-02-28T04:26:28;99849.03;;;9.84;86.56
26376;BME280;30544;42.196;24.336;2023-02-28T04:28:56;99842.97;;;9.94;86.21
26376;BME280;30544;42.196;24.336;2023-02-28T04:31:23;99843.81;;;9.94;87.32
26376;BME280;30544;42.196;24.336;2023-02-28T04:33:50;99834.81;;;9.99;87.70
26376;BME280;30544;42.196;24.336;2023-02-28T04:36:17;99840.03;;;10.07;87.90
26376;BME280;30544;42.196;24.336;2023-02-28T04:38:45;99846.78;;;9.75;89.90
26376;BME280;30544;42.196;24.336;2023-02-28T04:41:13;99846.47;;;10.08;90.55
26376;BME280;30544;42.196;24.336;2023-02-28T04:43:40;99850.50;;;9.87;91.97
26376;BME280;30544;42.196;24.336;2023-02-28T04:46:07;99846.53;;;10.01;91.98
26376;BME280;30544;42.196;24.336;2023-02-28T04:48:37;99848.53;;;10.12;90.95
26376;BME280;30544;42.196;24.336;2023-02-28T04:51:06;99849.28;;;10.01;91.79
26376;BME280;30544;42.196;24.336;2023-02-28T04:53:34;99850.94;;;10.09;91.37
26376;BME280;30544;42.196;24.336;2023-02-28T04:56:02;99855.25;;;10.23;90.56
26376;BME280;30544;42.196;24.336;2023-02-28T04:58:30;99857.50;;;9.89;92.11
26376;BME280;30544;42.196;24.336;2023-02-28T05:01:01;99851.56;;;9.86;92.05
26376;BME280;30544;42.196;24.336;2023-02-28T05:03:29;99860.56;;;9.81;92.89
26376;BME280;30544;42.196;24.336;2023-02-28T05:05:55;99856.41;;;10.15;91.03
26376;BME280;30544;42.196;24.336;2023-02-28T05:08:22;99861.03;;;9.78;91.50
26376;BME280;30544;42.196;24.336;2023-02-28T05:10:50;99871.28;;;9.78;92.91
26376;BME280;30544;42.196;24.336;2023-02-28T05:13:17;99866.66;;;9.90;91.76
26376;BME280;30544;42.196;24.336;2023-02-28T05:15:45;99870.91;;;9.92;92.56
26376;BME280;30544;42.196;24.336;2023-02-28T05:18:12;99883.75;;;9.87;92.33
26376;BME280;30544;42.196;24.336;2023-02-28T05:20:39;99875.81;;;9.90;91.45
26376;BME280;30544;42.196;24.336;2023-02-28T05:23:06;99877.34;;;9.86;92.14
26376;BME280;30544;42.196;24.336;2023-02-28T05:25:33;99883.03;;;10.16;90.23
26376;BME280;30544;42.196;24.336;2023-02-28T05:27:59;99887.53;;;9.92;90.30
26376;BME280;30544;42.196;24.336;2023-02-28T05:30:26;99899.81;;;9.78;91.00
26376;BME280;30544;42.196;24.336;2023-02-28T05:32:54;99899.59;;;9.80;92.33
26376;BME280;30544;42.196;24.336;2023-02-28T05:35:21;99899.97;;;9.83;90.81
26376;BME280;30544;42.196;24.336;2023-02-28T05:37:48;99902.53;;;9.85;90.80
26376;BME280;30544;42.196;24.336;2023-02-28T05:40:15;99912.28;;;9.87;90.94
26376;BME280;30544;42.196;24.336;2023-02-28T05:42:42;99911.56;;;9.74;90.08
26376;BME280;30544;42.196;24.336;2023-02-28T05:45:10;99916.94;;;9.93;90.64
26376;BME280;30544;42.196;24.336;2023-02-28T05:47:37;99915.75;;;9.83;90.26
26376;BME280;30544;42.196;24.336;2023-02-28T05:50:06;99915.13;;;10.31;87.96
26376;BME280;30544;42.196;24.336;2023-02-28T05:52:34;99927.56;;;10.21;87.96
26376;BME280;30544;42.196;24.336;2023-02-28T05:55:01;99937.75;;;10.03;88.65
26376;BME280;30544;42.196;24.336;2023-02-28T05:57:28;99949.47;;;9.80;89.92
26376;BME280;30544;42.196;24.336;2023-02-28T05:59:55;99944.09;;;9.85;89.77
26376;BME280;30544;42.196;24.336;2023-02-28T06:02:21;99946.84;;;9.85;89.14
26376;BME280;30544;42.196;24.336;2023-02-28T06:04:48;99944.09;;;10.10;88.85
26376;BME280;30544;42.196;24.336;2023-02-28T06:07:16;99950.16;;;9.75;89.98
26376;BME280;30544;42.196;24.336;2023-02-28T06:09:43;99951.94;;;9.88;89.29
26376;BME280;30544;42.196;24.336;2023-02-28T06:12:10;99951.72;;;10.14;88.03
26376;BME280;30544;42.196;24.336;2023-02-28T06:14:37;99940.47;;;10.34;85.88
26376;BME280;30544;42.196;24.336;2023-02-28T06:17:04;99947.44;;;9.93;88.09
26376;BME280;30544;42.196;24.336;2023-02-28T06:19:31;99947.03;;;10.15;86.79
26376;BME280;30544;42.196;24.336;2023-02-28T06:21:59;99947.13;;;10.02;87.45
26376;BME280;30544;42.196;24.336;2023-02-28T06:24:27;99943.25;;;10.09;87.40
26376;BME280;30544;42.196;24.336;2023-02-28T06:26:57;99943.56;;;10.44;86.01
26376;BME280;30544;42.196;24.336;2023-02-28T06:29:30;99947.94;;;10.09;87.65
26376;BME280;30544;42.196;24.336;2023-02-28T06:31:57;99953.50;;;10.52;85.97
26376;BME280;30544;42.196;24.336;2023-02-28T06:34:23;99954.22;;;10.22;86.41
26376;BME280;30544;42.196;24.336;2023-02-28T06:36:51;99953.19;;;10.17;86.71
26376;BME280;30544;42.196;24.336;2023-02-28T06:39:18;99963.56;;;10.28;86.89
26376;BME280;30544;42.196;24.336;2023-02-28T06:41:47;99968.34;;;10.39;85.22
26376;BME280;30544;42.196;24.336;2023-02-28T06:44:15;99960.59;;;10.23;86.45
26376;BME280;30544;42.196;24.336;2023-02-28T06:46:43;99968.66;;;10.31;86.11
26376;BME280;30544;42.196;24.336;2023-02-28T06:49:11;99962.56;;;10.41;85.36
26376;BME280;30544;42.196;24.336;2023-02-28T06:51:39;99966.81;;;10.18;85.73
26376;BME280;30544;42.196;24.336;2023-02-28T06:54:07;99963.50;;;10.10;86.45
26376;BME280;30544;42.196;24.336;2023-02-28T06:56:35;99962.03;;;10.32;85.85
26376;BME280;30544;42.196;24.336;2023-02-28T06:59:04;99952.03;;;10.68;84.60
26376;BME280;30544;42.196;24.336;2023-02-28T07:01:31;99964.38;;;10.53;84.92
26376;BME280;30544;42.196;24.336;2023-02-28T07:03:59;99967.28;;;10.15;85.48
26376;BME280;30544;42.196;24.336;2023-02-28T07:06:26;99969.00;;;9.91;86.27
26376;BME280;30544;42.196;24.336;2023-02-28T07:08:54;99968.81;;;10.36;84.99
26376;BME280;30544;42.196;24.336;2023-02-28T07:11:21;99977.84;;;10.50;84.54
26376;BME280;30544;42.196;24.336;2023-02-28T07:13:50;99975.84;;;10.57;84.27
26376;BME280;30544;42.196;24.336;2023-02-28T07:16:19;99989.91;;;10.37;84.30
26376;BME280;30544;42.196;24.336;2023-02-28T07:18:46;99978.78;;;10.44;83.94
26376;BME280;30544;42.196;24.336;2023-02-28T07:21:13;99982.41;;;10.44;84.71
26376;BME280;30544;42.196;24.336;2023-02-28T07:23:40;99981.13;;;10.40;84.27
26376;BME280;30544;42.196;24.336;2023-02-28T07:26:08;99983.91;;;10.40;84.65
26376;BME280;30544;42.196;24.336;2023-02-28T07:28:38;99980.97;;;10.60;83.71
26376;BME280;30544;42.196;24.336;2023-02-28T07:31:05;99986.53;;;10.35;84.90
26376;BME280;30544;42.196;24.336;2023-02-28T07:33:34;99986.41;;;10.48;84.67
26376;BME280;30544;42.196;24.336;2023-02-28T07:36:01;99987.34;;;10.61;83.83
26376;BME280;30544;42.196;24.336;2023-02-28T07:38:28;99985.75;;;10.28;85.58
26376;BME280;30544;42.196;24.336;2023-02-28T07:40:55;99988.09;;;10.49;85.65
26376;BME280;30544;42.196;24.336;2023-02-28T07:43:22;99996.03;;;10.46;85.08
26376;BME280;30544;42.196;24.336;2023-02-28T07:45:48;99990.88;;;11.04;83.06
26376;BME280;30544;42.196;24.336;2023-02-28T07:48:15;99985.97;;;10.88;82.98
26376;BME280;30544;42.196;24.336;2023-02-28T07:50:43;99981.44;;;10.75;82.99
26376;BME280;30544;42.196;24.336;2023-02-28T07:53:13;99983.50;;;10.62;83.41
26376;BME280;30544;42.196;24.336;2023-02-28T07:55:40;99980.63;;;11.05;82.78
26376;BME280;30544;42.196;24.336;2023-02-28T07:58:06;99980.13;;;11.44;80.26
26376;BME280;30544;42.196;24.336;2023-02-28T08:00:33;99978.91;;;11.22;80.55
26376;BME280;30544;42.196;24.336;2023-02-28T08:03:00;99986.56;;;10.90;81.95
26376;BME280;30544;42.196;24.336;2023-02-28T08:05:27;99994.22;;;10.33;84.95
26376;BME280;30544;42.196;24.336;2023-02-28T08:07:55;99996.16;;;10.94;83.09
26376;BME280;30544;42.196;24.336;2023-02-28T08:10:22;100004.28;;;11.07;81.55
26376;BME280;30544;42.196;24.336;2023-02-28T08:12:49;100007.47;;;11.11;81.72
26376;BME280;30544;42.196;24.336;2023-02-28T08:15:16;100013.88;;;10.93;82.18
26376;BME280;30544;42.196;24.336;2023-02-28T08:17:43;100010.31;;;11.04;81.71
26376;BME280;30544;42.196;24.336;2023-02-28T08:20:11;100008.09;;;10.95;81.98
26376;BME280;30544;42.196;24.336;2023-02-28T08:22:38;100013.66;;;10.95;81.92
26376;BME280;30544;42.196;24.336;2023-02-28T08:25:08;100006.34;;;10.57;83.87
26376;BME280;30544;42.196;24.336;2023-02-28T08:27:35;100004.47;;;10.94;82.62
26376;BME280;30544;42.196;24.336;2023-02-28T08:30:06;99998.75;;;10.89;81.71
26376;BME280;30544;42.196;24.336;2023-02-28T08:32:33;99993.28;;;10.82;82.00
26376;BME280;30544;42.196;24.336;2023-02-28T08:35:00;100002.31;;;11.14;80.97
26376;BME280;30544;42.196;24.336;2023-02-28T08:37:28;99999.25;;;11.34;80.46
26376;BME280;30544;42.196;24.336;2023-02-28T08:39:55;99995.75;;;11.27;80.14
26376;BME280;30544;42.196;24.336;2023-02-28T08:42:24;99999.19;;;11.23;81.04
26376;BME280;30544;42.196;24.336;2023-02-28T08:44:50;99995.06;;;11.13;81.01
26376;BME280;30544;42.196;24.336;2023-02-28T08:47:18;99995.53;;;11.10;81.21
26376;BME280;30544;42.196;24.336;2023-02-28T08:49:44;99998.06;;;11.12;81.48
26376;BME280;30544;42.196;24.336;2023-02-28T08:52:11;99992.38;;;11.37;79.88
26376;BME280;30544;42.196;24.336;2023-02-28T08:54:38;99998.97;;;11.42;79.83
26376;BME280;30544;42.196;24.336;2023-02-28T08:57:05;99984.41;;;11.29;79.46
26376;BME280;30544;42.196;24.336;2023-02-28T08:59:33;99991.66;;;11.30;80.16
26376;BME280;30544;42.196;24.336;2023-02-28T09:02:00;99986.56;;;10.72;82.61
26376;BME280;30544;42.196;24.336;2023-02-28T09:04:27;99992.91;;;10.97;81.85
26376;BME280;30544;42.196;24.336;2023-02-28T09:06:56;99993.28;;;11.49;79.73
26376;BME280;30544;42.196;24.336;2023-02-28T09:09:22;99987.47;;;11.21;80.67
26376;BME280;30544;42.196;24.336;2023-02-28T09:11:49;99989.03;;;11.17;81.15
26376;BME280;30544;42.196;24.336;2023-02-28T09:14:16;99996.84;;;11.38;80.26
26376;BME280;30544;42.196;24.336;2023-02-28T09:16:45;99999.09;;;11.48;78.82
26376;BME280;30544;42.196;24.336;2023-02-28T09:19:12;99999.50;;;11.81;78.51
26376;BME280;30544;42.196;24.336;2023-02-28T09:21:39;99998.44;;;11.94;77.90
26376;BME280;30544;42.196;24.336;2023-02-28T09:24:06;99993.34;;;11.61;78.46
26376;BME280;30544;42.196;24.336;2023-02-28T09:26:33;99991.47;;;11.25;79.22
26376;BME280;30544;42.196;24.336;2023-02-28T09:29:00;99985.81;;;11.50;79.16
26376;BME280;30544;42.196;24.336;2023-02-28T09:31:28;99978.19;;;10.97;80.55
26376;BME280;30544;42.196;24.336;2023-02-28T09:33:57;99977.38;;;11.26;80.77
26376;BME280;30544;42.196;24.336;2023-02-28T09:36:26;99969.38;;;11.00;82.02
26376;BME280;30544;42.196;24.336;2023-02-28T09:38:55;99961.44;;;11.03;80.14
26376;BME280;30544;42.196;24.336;2023-02-28T09:41:23;99962.16;;;11.59;78.36
26376;BME280;30544;42.196;24.336;2023-02-28T09:43:56;99954.97;;;11.39;78.31
26376;BME280;30544;42.196;24.336;2023-02-28T09:46:32;99964.69;;;11.79;77.90
26376;BME280;30544;42.196;24.336;2023-02-28T09:49:05;99981.91;;;12.11;76.79
26376;BME280;30544;42.196;24.336;2023-02-28T09:51:40;99971.81;;;11.56;78.05
26376;BME280;30544;42.196;24.336;2023-02-28T09:54:14;99975.59;;;11.32;79.73
26376;BME280;30544;42.196;24.336;2023-02-28T09:56:45;99971.69;;;11.03;81.81
26376;BME280;30544;42.196;24.336;2023-02-28T09:59:17;99976.50;;;10.77;82.31
26376;BME280;30544;42.196;24.336;2023-02-28T10:01:55;99960.56;;;11.21;81.82
26376;BME280;30544;42.196;24.336;2023-02-28T10:04:40;99973.44;;;11.64;79.80
26376;BME280;30544;42.196;24.336;2023-02-28T10:07:20;99971.63;;;11.09;81.63
26376;BME280;30544;42.196;24.336;2023-02-28T10:09:52;99968.84;;;11.39;79.45
26376;BME280;30544;42.196;24.336;2023-02-28T10:12:20;99968.50;;;11.18;80.50
26376;BME280;30544;42.196;24.336;2023-02-28T10:14:51;99967.47;;;10.64;83.29
26376;BME280;30544;42.196;24.336;2023-02-28T10:17:21;99979.13;;;10.29;85.17
26376;BME280;30544;42.196;24.336;2023-02-28T10:19:58;99971.78;;;10.60;83.42
26376;BME280;30544;42.196;24.336;2023-02-28T10:22:36;99969.78;;;10.85;82.77
26376;BME280;30544;42.196;24.336;2023-02-28T10:25:17;99966.72;;;11.23;81.02
26376;BME280;30544;42.196;24.336;2023-02-28T10:27:44;99967.28;;;11.13;81.50
26376;BME280;30544;42.196;24.336;2023-02-28T10:30:12;99960.84;;;10.65;82.63
26376;BME280;30544;42.196;24.336;2023-02-28T10:32:40;99954.91;;;10.43;84.41
26376;BME280;30544;42.196;24.336;2023-02-28T10:35:17;99956.22;;;10.95;82.33
26376;BME280;30544;42.196;24.336;2023-02-28T10:37:46;99955.56;;;10.75;83.27
26376;BME280;30544;42.196;24.336;2023-02-28T10:40:29;99956.00;;;10.60;84.43
26376;BME280;30544;42.196;24.336;2023-02-28T10:42:57;99954.19;;;10.47;84.35
26376;BME280;30544;42.196;24.336;2023-02-28T10:45:25;99956.59;;;10.80;84.71
26376;BME280;30544;42.196;24.336;2023-02-28T10:47:55;99952.50;;;11.01;82.16
26376;BME280;30544;42.196;24.336;2023-02-28T10:50:42;99947.09;;;10.51;84.53
26376;BME280;30544;42.196;24.336;2023-02-28T10:53:33;99950.53;;;11.50;80.28
26376;BME280;30544;42.196;24.336;2023-02-28T10:56:03;99949.22;;;11.23;80.95
26376;BME280;30544;42.196;24.336;2023-02-28T10:58:44;99942.94;;;11.45;80.57
26376;BME280;30544;42.196;24.336;2023-02-28T11:01:14;99929.47;;;11.72;79.71
26376;BME280;30544;42.196;24.336;2023-02-28T11:03:41;99930.19;;;11.68;78.89
26376;BME280;30544;42.196;24.336;2023-02-28T11:06:15;99920.06;;;10.65;83.09
26376;BME280;30544;42.196;24.336;2023-02-28T11:08:51;99923.38;;;10.74;83.12
26376;BME280;30544;42.196;24.336;2023-02-28T11:11:20;99920.28;;;10.82;83.24
26376;BME280;30544;42.196;24.336;2023-02-28T11:13:51;99913.72;;;11.25;81.55
26376;BME280;30544;42.196;24.336;2023-02-28T11:16:19;99913.41;;;11.03;81.53
26376;BME280;30544;42.196;24.336;2023-02-28T11:18:49;99905.38;;;11.43;79.60
26376;BME280;30544;42.196;24.336;2023-02-28T11:21:21;99906.81;;;11.45;79.53
26376;BME280;30544;42.196;24.336;2023-02-28T11:23:51;99917.28;;;11.32;80.56
26376;BME280;30544;42.196;24.336;2023-02-28T11:26:38;99913.66;;;11.31;80.32
26376;BME280;30544;42.196;24.336;2023-02-28T11:29:18;99914.22;;;11.63;78.82
26376;BME280;30544;42.196;24.336;2023-02-28T11:32:09;99915.03;;;11.22;80.42
26376;BME280;30544;42.196;24.336;2023-02-28T11:34:39;99912.69;;;11.07;81.06
26376;BME280;30544;42.196;24.336;2023-02-28T11:37:11;99912.63;;;11.14;81.59
26376;BME280;30544;42.196;24.336;2023-02-28T11:39:39;99909.25;;;11.24;81.22
26376;BME280;30544;42.196;24.336;2023-02-28T11:42:27;99901.59;;;11.37;81.59
26376;BME280;30544;42.196;24.336;2023-02-28T11:45:07;99911.78;;;11.13;82.28
26376;BME280;30544;42.196;24.336;2023-02-28T11:47:44;99901.03;;;11.17;81.99
26376;BME280;30544;42.196;24.336;2023-02-28T11:50:23;99896.97;;;11.01;81.33
26376;BME280;30544;42.196;24.336;2023-02-28T11:52:56;99889.69;;;11.19;81.73
26376;BME280;30544;42.196;24.336;2023-02-28T11:55:26;99893.50;;;11.06;83.24
26376;BME280;30544;42.196;24.336;2023-02-28T11:58:14;99885.63;;;11.33;82.98
26376;BME280;30544;42.196;24.336;2023-02-28T12:00:57;99871.34;;;11.18;85.37
26376;BME280;30544;42.196;24.336;2023-02-28T12:03:35;99877.25;;;11.63;82.97
26376;BME280;30544;42.196;24.336;2023-02-28T12:06:16;99885.31;;;11.94;82.35
26376;BME280;30544;42.196;24.336;2023-02-28T12:08:53;99880.47;;;12.01;82.76
26376;BME280;30544;42.196;24.336;2023-02-28T12:11:33;99881.00;;;11.68;84.03
26376;BME280;30544;42.196;24.336;2023-02-28T12:14:21;99876.94;;;10.99;87.75
26376;BME280;30544;42.196;24.336;2023-02-28T12:16:59;99887.66;;;10.96;88.89
26376;BME280;30544;42.196;24.336;2023-02-28T12:19:35;99872.16;;;10.88;90.70
26376;BME280;30544;42.196;24.336;2023-02-28T12:22:16;99877.63;;;10.46;92.62
26376;BME280;30544;42.196;24.336;2023-02-28T12:28:12;99891.97;;;10.43;93.03
26376;BME280;30544;42.196;24.336;2023-02-28T12:30:47;99885.78;;;10.41;94.29
26376;BME280;30544;42.196;24.336;2023-02-28T12:33:17;99883.22;;;10.40;94.79
26376;BME280;30544;42.196;24.336;2023-02-28T12:35:49;99883.69;;;10.55;94.43
26376;BME280;30544;42.196;24.336;2023-02-28T12:38:22;99883.47;;;10.57;93.79
26376;BME280;30544;42.196;24.336;2023-02-28T12:40:54;99887.16;;;10.50;93.25
26376;BME280;30544;42.196;24.336;2023-02-28T12:43:27;99884.63;;;10.49;93.33
26376;BME280;30544;42.196;24.336;2023-02-28T12:45:58;99879.31;;;10.47;94.21
26376;BME280;30544;42.196;24.336;2023-02-28T12:48:34;99879.78;;;10.26;94.29
26376;BME280;30544;42.196;24.336;2023-02-28T12:51:05;99876.31;;;10.06;97.79
26376;BME280;30544;42.196;24.336;2023-02-28T12:53:41;99875.97;;;10.39;96.46
26376;BME280;30544;42.196;24.336;2023-02-28T12:56:16;99880.63;;;10.45;95.40
26376;BME280;30544;42.196;24.336;2023-02-28T12:58:49;99885.63;;;10.36;95.50
26376;BME280;30544;42.196;24.336;2023-02-28T13:07:31;99871.69;;;10.00;98.23
26376;BME280;30544;42.196;24.336;2023-02-28T13:10:05;99876.91;;;9.89;99.88
26376;BME280;30544;42.196;24.336;2023-02-28T13:12:33;99874.97;;;9.90;98.59
26376;BME280;30544;42.196;24.336;2023-02-28T13:15:05;99867.00;;;10.00;99.79
26376;BME280;30544;42.196;24.336;2023-02-28T13:17:38;99870.69;;;9.94;98.65
26376;BME280;30544;42.196;24.336;2023-02-28T13:20:15;99878.19;;;9.87;99.33
26376;BME280;30544;42.196;24.336;2023-02-28T13:22:44;99873.16;;;10.27;98.79